createdAt,value
2018-04-08T00:01:50.533Z,5.83
2018-04-08T00:04:18.741Z,5.27
2018-04-08T00:06:46.196Z,5.67
2018-04-08T00:09:14.401Z,5.70
2018-04-08T00:11:41.840Z,4.97
2018-04-08T00:14:09.282Z,5.37
2018-04-08T00:16:37.481Z,5.30
2018-04-08T00:19:04.933Z,6.63
2018-04-08T00:21:32.369Z,5.43
2018-04-08T00:24:00.581Z,4.77
2018-04-08T00:26:28.023Z,5.27
2018-04-08T00:28:56.227Z,5.73
2018-04-08T00:31:23.682Z,4.97
2018-04-08T00:33:51.123Z,5.87
2018-04-08T00:36:19.358Z,5.80
2018-04-08T00:38:46.809Z,5.13
2018-04-08T00:41:14.258Z,5.47
2018-04-08T00:43:41.718Z,5.43
2018-04-08T00:46:09.197Z,6.00
2018-04-08T00:48:36.635Z,5.73
2018-04-08T00:51:04.083Z,5.80
2018-04-08T00:53:32.287Z,5.07
2018-04-08T00:55:59.719Z,5.47
2018-04-08T00:58:27.931Z,5.30
2018-04-08T01:00:55.381Z,5.67
2018-04-08T01:03:22.841Z,5.50
2018-04-08T01:05:50.279Z,6.67
2018-04-08T01:08:17.719Z,7.03
2018-04-08T01:10:45.167Z,7.10
2018-04-08T01:13:12.626Z,7.57
2018-04-08T01:15:40.079Z,7.60
2018-04-08T01:18:07.536Z,7.60
2018-04-08T01:20:34.991Z,7.23
2018-04-08T01:23:02.440Z,7.13
2018-04-08T01:25:29.886Z,6.53
2018-04-08T01:27:58.121Z,7.60
2018-04-08T01:30:25.559Z,7.00
2018-04-08T01:32:52.997Z,8.00
2018-04-08T01:35:21.200Z,7.77
2018-04-08T01:37:48.660Z,7.23
2018-04-08T01:40:16.871Z,6.97
2018-04-08T01:42:44.317Z,7.30
2018-04-08T01:45:11.754Z,7.70
2018-04-08T01:47:39.194Z,7.10
2018-04-08T01:50:07.399Z,7.20
2018-04-08T01:52:34.838Z,7.53
2018-04-08T01:55:03.052Z,7.13
2018-04-08T01:57:30.510Z,7.57
2018-04-08T01:59:57.955Z,7.30
2018-04-08T02:02:26.157Z,7.47
2018-04-08T02:04:53.612Z,7.77
2018-04-08T02:07:21.047Z,7.00
2018-04-08T02:09:49.261Z,6.87
2018-04-08T02:12:16.702Z,8.00
2018-04-08T02:14:44.918Z,7.43
2018-04-08T02:17:12.368Z,7.43
2018-04-08T02:19:39.802Z,7.70
2018-04-08T02:22:08.031Z,7.60
2018-04-08T02:24:35.470Z,7.50
2018-04-08T02:27:02.951Z,7.40
2018-04-08T02:29:30.394Z,7.60
2018-04-08T02:31:57.837Z,7.20
2018-04-08T02:34:26.065Z,7.60
2018-04-08T02:36:53.494Z,8.13
2018-04-08T02:39:20.950Z,8.70
2018-04-08T02:41:48.415Z,8.70
2018-04-08T02:44:16.605Z,9.53
2018-04-08T02:46:44.070Z,9.87
2018-04-08T02:49:11.530Z,9.20
2018-04-08T02:51:38.959Z,9.87
2018-04-08T02:54:07.173Z,10.23
2018-04-08T02:56:34.620Z,10.63
2018-04-08T02:59:02.847Z,10.60
2018-04-08T03:01:30.298Z,12.30
2018-04-08T03:03:57.842Z,11.17
2018-04-08T03:06:25.305Z,11.97
2018-04-08T03:08:52.756Z,12.47
2018-04-08T03:11:20.219Z,12.53
2018-04-08T03:13:48.409Z,12.83
2018-04-08T03:16:15.885Z,12.53
2018-04-08T03:18:43.323Z,13.10
2018-04-08T03:21:10.778Z,12.07
2018-04-08T03:23:38.985Z,12.93
2018-04-08T03:26:06.447Z,12.77
2018-04-08T03:28:33.886Z,13.70
2018-04-08T03:31:01.345Z,14.17
2018-04-08T03:33:29.558Z,12.97
2018-04-08T03:35:57.015Z,13.30
2018-04-08T03:38:24.476Z,14.13
2018-04-08T03:40:51.930Z,14.07
2018-04-08T03:43:19.388Z,13.43
2018-04-08T03:45:46.859Z,14.43
2018-04-08T03:48:14.337Z,15.57
2018-04-08T03:50:41.788Z,14.63
2018-04-08T03:53:09.255Z,15.27
2018-04-08T03:55:36.689Z,16.00
2018-04-08T03:58:04.911Z,15.37
2018-04-08T04:00:32.351Z,15.20
2018-04-08T04:02:59.800Z,15.70
2018-04-08T04:05:27.251Z,15.30
2018-04-08T04:07:55.474Z,15.37
2018-04-08T04:10:22.922Z,17.87
2018-04-08T04:12:50.369Z,15.23
2018-04-08T04:15:17.843Z,15.77
2018-04-08T04:17:45.298Z,17.10
2018-04-08T04:20:24.640Z,15.97
2018-04-08T04:23:04.000Z,16.63
2018-04-08T04:25:57.058Z,15.90
2018-04-08T04:28:24.510Z,16.03
2018-04-08T04:30:51.976Z,16.77
2018-04-08T04:33:19.418Z,16.30
2018-04-08T04:35:46.875Z,15.37
2018-04-08T04:38:14.316Z,15.87
2018-04-08T04:40:41.793Z,15.87
2018-04-08T04:43:09.228Z,16.50
2018-04-08T04:45:37.469Z,15.50
2018-04-08T04:48:04.900Z,15.70
2018-04-08T04:50:32.371Z,14.57
2018-04-08T04:52:59.820Z,15.30
2018-04-08T04:55:27.263Z,16.17
2018-04-08T04:57:55.486Z,15.83
2018-04-08T05:00:22.935Z,15.53
2018-04-08T05:02:50.402Z,16.87
2018-04-08T05:05:17.837Z,15.33
2018-04-08T05:07:46.071Z,15.27
2018-04-08T05:10:14.278Z,15.00
2018-04-08T05:12:42.046Z,15.83
2018-04-08T05:15:09.494Z,15.27
2018-04-08T05:17:36.946Z,15.50
2018-04-08T05:20:04.412Z,15.50
2018-04-08T05:22:31.864Z,14.40
2018-04-08T05:24:59.318Z,15.17
2018-04-08T05:27:26.769Z,13.90
2018-04-08T05:29:54.240Z,14.37
2018-04-08T05:32:21.688Z,14.60
2018-04-08T05:34:49.150Z,15.33
2018-04-08T05:37:16.632Z,15.30
2018-04-08T05:39:44.079Z,18.10
2018-04-08T05:42:11.510Z,14.43
2018-04-08T05:44:39.722Z,15.30
2018-04-08T05:47:07.165Z,15.67
2018-04-08T05:49:34.649Z,14.90
2018-04-08T05:52:02.090Z,15.50
2018-04-08T05:54:30.314Z,16.03
2018-04-08T05:56:57.790Z,19.80
2018-04-08T05:59:25.208Z,17.27
2018-04-08T06:01:52.658Z,16.83
2018-04-08T06:04:20.136Z,16.40
2018-04-08T06:06:47.577Z,17.30
2018-04-08T06:09:15.808Z,16.30
2018-04-08T06:11:43.250Z,16.50
2018-04-08T06:14:10.716Z,15.60
2018-04-08T06:16:38.179Z,16.70
2018-04-08T06:19:05.636Z,18.13
2018-04-08T06:21:33.191Z,16.67
2018-04-08T06:24:00.655Z,17.40
2018-04-08T06:26:28.110Z,18.13
2018-04-08T06:28:55.553Z,17.30
2018-04-08T06:31:23.789Z,19.40
2018-04-08T06:33:51.246Z,17.10
2018-04-08T06:36:18.691Z,17.60
2018-04-08T06:38:46.159Z,16.30
2018-04-08T06:41:13.610Z,18.90
2018-04-08T06:43:41.072Z,19.17
2018-04-08T06:46:08.532Z,18.03
2018-04-08T06:48:35.977Z,18.17
2018-04-08T06:51:04.196Z,17.00
2018-04-08T06:53:31.655Z,17.07
2018-04-08T06:55:59.114Z,17.03
2018-04-08T06:58:26.580Z,17.73
2018-04-08T07:00:54.007Z,19.40
2018-04-08T07:03:22.225Z,17.37
2018-04-08T07:05:49.676Z,17.30
2018-04-08T07:08:17.134Z,19.57
2018-04-08T07:10:44.599Z,18.83
2018-04-08T07:13:12.062Z,21.60
2018-04-08T07:15:39.512Z,21.47
2018-04-08T07:18:06.965Z,17.77
2018-04-08T07:20:35.183Z,19.57
2018-04-08T07:23:02.636Z,21.57
2018-04-08T07:25:30.077Z,17.43
2018-04-08T07:27:57.535Z,18.57
2018-04-08T07:30:25.750Z,17.33
2018-04-08T07:32:53.191Z,20.03
2018-04-08T07:35:20.649Z,20.73
2018-04-08T07:37:48.100Z,16.40
2018-04-08T07:40:16.307Z,17.60
2018-04-08T07:42:43.760Z,18.73
2018-04-08T07:45:11.207Z,16.67
2018-04-08T07:47:38.658Z,16.90
2018-04-08T07:50:06.891Z,18.37
2018-04-08T07:52:35.094Z,18.47
2018-04-08T07:55:02.546Z,18.87
2018-04-08T07:57:29.984Z,15.13
2018-04-08T07:59:57.452Z,20.60
2018-04-08T08:02:24.907Z,16.80
2018-04-08T08:04:52.343Z,19.87
2018-04-08T08:07:19.804Z,20.37
2018-04-08T08:09:47.302Z,18.87
2018-04-08T08:12:14.761Z,20.60
2018-04-08T08:14:42.211Z,19.00
2018-04-08T08:17:09.657Z,20.77
2018-04-08T08:19:37.115Z,19.13
2018-04-08T08:22:05.332Z,17.90
2018-04-08T08:24:32.797Z,19.87
2018-04-08T08:27:00.243Z,17.03
2018-04-08T08:29:27.716Z,17.37
2018-04-08T08:31:55.182Z,18.93
2018-04-08T08:34:22.595Z,19.20
2018-04-08T08:36:50.908Z,16.77
2018-04-08T08:39:19.089Z,19.27
2018-04-08T08:41:46.563Z,19.10
2018-04-08T08:44:13.987Z,20.60
2018-04-08T08:46:42.207Z,18.70
2018-04-08T08:49:09.691Z,20.10
2018-04-08T08:51:37.114Z,18.73
2018-04-08T08:54:04.583Z,18.60
2018-04-08T08:56:32.043Z,20.13
2018-04-08T08:58:59.497Z,18.70
2018-04-08T09:01:26.933Z,19.47
2018-04-08T09:03:54.385Z,20.43
2018-04-08T09:06:21.844Z,18.87
2018-04-08T09:08:49.302Z,17.70
2018-04-08T09:11:16.757Z,19.37
2018-04-08T09:13:44.196Z,19.07
2018-04-08T09:16:11.648Z,18.17
2018-04-08T09:18:39.098Z,20.50
2018-04-08T09:21:11.489Z,20.00
2018-04-08T09:23:54.725Z,20.07
2018-04-08T09:26:22.190Z,19.70
2018-04-08T09:28:49.628Z,18.13
2018-04-08T09:31:17.105Z,19.07
2018-04-08T09:33:44.593Z,17.13
2018-04-08T09:36:12.057Z,17.07
2018-04-08T09:38:39.526Z,17.63
2018-04-08T09:41:06.994Z,17.13
2018-04-08T09:43:34.443Z,15.97
2018-04-08T09:46:01.899Z,15.67
2018-04-08T09:48:29.342Z,17.03
2018-04-08T09:50:56.820Z,16.57
2018-04-08T09:53:24.259Z,15.50
2018-04-08T09:55:51.689Z,19.17
2018-04-08T09:58:19.895Z,20.23
2018-04-08T10:01:04.047Z,19.50
2018-04-08T10:03:34.091Z,19.87
2018-04-08T10:06:01.552Z,19.90
2018-04-08T10:08:29.009Z,20.63
2018-04-08T10:10:56.472Z,19.27
2018-04-08T10:13:23.931Z,19.90
2018-04-08T10:15:51.392Z,18.00
2018-04-08T10:18:18.839Z,19.10
2018-04-08T10:20:46.294Z,19.23
2018-04-08T10:23:13.750Z,19.20
2018-04-08T10:25:41.192Z,18.70
2018-04-08T10:28:09.510Z,18.87
2018-04-08T10:30:36.951Z,19.30
2018-04-08T10:33:05.154Z,19.73
2018-04-08T10:35:32.604Z,19.17
2018-04-08T10:38:00.033Z,20.50
2018-04-08T10:40:27.483Z,19.27
2018-04-08T10:42:54.943Z,18.63
2018-04-08T10:45:22.378Z,18.63
2018-04-08T10:47:49.835Z,18.00
2018-04-08T10:50:17.289Z,17.10
2018-04-08T10:52:44.750Z,18.67
2018-04-08T10:55:12.193Z,18.23
2018-04-08T10:57:39.635Z,18.70
2018-04-08T11:00:07.874Z,17.80
2018-04-08T11:02:35.344Z,18.27
2018-04-08T11:05:02.800Z,18.53
2018-04-08T11:07:30.240Z,18.23
2018-04-08T11:09:57.704Z,18.50
2018-04-08T11:12:25.144Z,18.00
2018-04-08T11:14:53.367Z,17.33
2018-04-08T11:17:20.819Z,17.77
2018-04-08T11:19:48.247Z,17.77
2018-04-08T11:22:16.467Z,18.67
2018-04-08T11:24:43.915Z,17.30
2018-04-08T11:27:11.377Z,17.37
2018-04-08T11:29:38.810Z,17.37
2018-04-08T11:32:07.018Z,16.47
2018-04-08T11:34:34.480Z,17.73
2018-04-08T11:37:01.918Z,16.73
2018-04-08T11:39:30.126Z,16.97
2018-04-08T11:41:57.584Z,16.73
2018-04-08T11:44:25.050Z,18.00
2018-04-08T11:46:52.494Z,16.93
2018-04-08T11:49:19.941Z,16.90
2018-04-08T11:51:48.160Z,17.80
2018-04-08T11:54:15.607Z,16.80
2018-04-08T11:56:43.066Z,17.37
2018-04-08T11:59:10.526Z,15.37
2018-04-08T12:01:37.982Z,15.67
2018-04-08T12:04:06.198Z,15.13
2018-04-08T12:06:33.668Z,15.53
2018-04-08T12:09:01.106Z,15.37
2018-04-08T12:11:28.559Z,15.37
2018-04-08T12:13:56.016Z,14.70
2018-04-08T12:16:24.239Z,13.67
2018-04-08T12:18:51.693Z,14.77
2018-04-08T12:21:19.156Z,14.63
2018-04-08T12:23:46.597Z,14.20
2018-04-08T12:26:16.538Z,14.30
2018-04-08T12:28:43.996Z,13.33
2018-04-08T12:31:11.453Z,16.70
2018-04-08T12:33:38.924Z,17.70
2018-04-08T12:36:06.383Z,16.70
2018-04-08T12:38:33.860Z,16.60
2018-04-08T12:41:01.320Z,16.80
2018-04-08T12:43:28.798Z,17.03
2018-04-08T12:45:56.251Z,17.67
2018-04-08T12:48:23.697Z,15.53
2018-04-08T12:50:51.151Z,17.30
2018-04-08T12:53:18.626Z,16.73
2018-04-08T12:55:46.083Z,17.10
2018-04-08T12:58:13.521Z,14.73
2018-04-08T13:00:40.983Z,17.10
2018-04-08T13:03:09.201Z,16.30
2018-04-08T13:05:36.671Z,15.93
2018-04-08T13:08:04.122Z,17.03
2018-04-08T13:10:31.615Z,14.67
2018-04-08T13:12:59.024Z,15.43
2018-04-08T13:15:26.470Z,16.37
2018-04-08T13:17:54.701Z,15.90
2018-04-08T13:20:22.164Z,14.57
2018-04-08T13:22:50.392Z,14.70
2018-04-08T13:25:18.620Z,15.60
2018-04-08T13:27:46.079Z,15.17
2018-04-08T13:30:13.576Z,14.90
2018-04-08T13:32:41.045Z,15.40
2018-04-08T13:35:08.498Z,14.10
2018-04-08T13:37:35.962Z,14.50
2018-04-08T13:40:03.411Z,14.33
2018-04-08T13:42:30.918Z,15.73
2018-04-08T13:44:58.383Z,15.60
2018-04-08T13:47:25.863Z,14.13
2018-04-08T13:49:53.313Z,13.57
2018-04-08T13:52:20.772Z,13.50
2018-04-08T13:54:48.260Z,13.50
2018-04-08T13:57:15.718Z,14.23
2018-04-08T13:59:43.170Z,13.90
2018-04-08T14:02:10.621Z,14.00
2018-04-08T14:04:38.090Z,14.33
2018-04-08T14:07:05.547Z,14.00
2018-04-08T14:09:32.993Z,13.83
2018-04-08T14:12:01.213Z,13.77
2018-04-08T14:14:28.701Z,14.17
2018-04-08T14:16:56.210Z,14.20
2018-04-08T14:19:24.510Z,14.80
2018-04-08T14:21:51.975Z,14.20
2018-04-08T14:24:19.456Z,14.57
2018-04-08T14:26:46.915Z,14.40
2018-04-08T14:29:14.380Z,15.77
2018-04-08T14:31:41.818Z,13.73
2018-04-08T14:34:09.287Z,15.33
2018-04-08T14:36:36.733Z,14.63
2018-04-08T14:39:04.227Z,14.77
2018-04-08T14:41:31.686Z,15.00
2018-04-08T14:43:59.162Z,16.37
2018-04-08T14:46:26.655Z,14.80
2018-04-08T14:48:54.080Z,15.17
2018-04-08T14:51:21.544Z,15.70
2018-04-08T14:53:48.990Z,14.27
2018-04-08T14:56:16.470Z,14.80
2018-04-08T14:58:43.928Z,14.63
2018-04-08T15:01:11.381Z,14.63
2018-04-08T15:03:38.830Z,14.13
2018-04-08T15:06:06.307Z,13.13
2018-04-08T15:08:33.749Z,15.07
2018-04-08T15:11:01.564Z,16.00
2018-04-08T15:13:29.018Z,17.97
2018-04-08T15:15:56.473Z,18.30
2018-04-08T15:18:23.945Z,18.53
2018-04-08T15:20:51.398Z,16.37
2018-04-08T15:23:18.855Z,14.60
2018-04-08T15:25:46.314Z,13.57
2018-04-08T15:28:13.793Z,14.77
2018-04-08T15:30:41.266Z,13.83
2018-04-08T15:33:08.706Z,12.97
2018-04-08T15:35:36.170Z,13.87
2018-04-08T15:38:03.626Z,13.17
2018-04-08T15:40:31.088Z,14.20
2018-04-08T15:42:58.555Z,13.13
2018-04-08T15:45:26.017Z,14.37
2018-04-08T15:47:53.446Z,14.73
2018-04-08T15:50:21.679Z,12.63
2018-04-08T15:52:49.163Z,13.33
2018-04-08T15:55:16.627Z,13.33
2018-04-08T15:57:44.079Z,13.33
2018-04-08T16:00:11.534Z,14.23
2018-04-08T16:02:39.012Z,13.13
2018-04-08T16:05:06.461Z,13.93
2018-04-08T16:07:33.914Z,13.70
2018-04-08T16:10:01.374Z,12.50
2018-04-08T16:12:28.896Z,17.57
2018-04-08T16:14:57.160Z,15.93
2018-04-08T16:17:25.241Z,16.30
2018-04-08T16:19:52.688Z,15.13
2018-04-08T16:22:20.152Z,16.47
2018-04-08T16:24:47.607Z,17.43
2018-04-08T16:27:15.063Z,15.77
2018-04-08T16:29:42.531Z,15.97
2018-04-08T16:32:09.983Z,16.77
2018-04-08T16:34:37.459Z,17.00
2018-04-08T16:37:04.945Z,21.20
2018-04-08T16:39:32.398Z,22.57
2018-04-08T16:41:59.877Z,19.53
2018-04-08T16:44:28.098Z,17.57
2018-04-08T16:46:55.552Z,17.00
2018-04-08T16:49:23.044Z,15.00
2018-04-08T16:51:51.254Z,15.43
2018-04-08T16:54:18.728Z,14.60
2018-04-08T16:56:46.949Z,15.70
2018-04-08T16:59:15.383Z,15.73
2018-04-08T17:01:42.796Z,15.43
2018-04-08T17:04:10.247Z,15.67
2018-04-08T17:06:37.718Z,15.33
2018-04-08T17:09:06.002Z,16.00
2018-04-08T17:11:33.463Z,15.97
2018-04-08T17:14:00.915Z,15.07
2018-04-08T17:16:28.396Z,15.83
2018-04-08T17:18:55.880Z,16.00
2018-04-08T17:21:23.348Z,13.00
2018-04-08T17:23:50.840Z,16.03
2018-04-08T17:26:19.066Z,15.77
2018-04-08T17:28:46.510Z,15.60
2018-04-08T17:31:13.968Z,16.10
2018-04-08T17:33:41.435Z,18.03
2018-04-08T17:36:08.900Z,16.20
2018-04-08T17:38:36.399Z,15.53
2018-04-08T17:41:03.862Z,16.03
2018-04-08T17:43:31.331Z,14.10
2018-04-08T17:45:58.801Z,15.20
2018-04-08T17:48:26.261Z,14.70
2018-04-08T17:50:53.715Z,13.70
2018-04-08T17:53:21.177Z,14.50
2018-04-08T17:55:48.646Z,13.93
2018-04-08T17:58:16.088Z,15.17
2018-04-08T18:00:43.544Z,14.33
2018-04-08T18:03:11.016Z,14.23
2018-04-08T18:05:38.480Z,14.67
2018-04-08T18:08:05.947Z,14.20
2018-04-08T18:10:33.415Z,13.60
2018-04-08T18:13:00.895Z,13.60
2018-04-08T18:15:28.357Z,13.13
2018-04-08T18:17:55.830Z,14.17
2018-04-08T18:20:24.053Z,13.43
2018-04-08T18:22:51.544Z,12.43
2018-04-08T18:25:19.076Z,12.47
2018-04-08T18:27:47.308Z,12.03
2018-04-08T18:30:14.769Z,13.07
2018-04-08T18:32:43.014Z,11.97
2018-04-08T18:35:10.502Z,13.27
2018-04-08T18:37:37.967Z,12.43
2018-04-08T18:40:05.423Z,12.20
2018-04-08T18:42:32.885Z,14.70
2018-04-08T18:45:01.114Z,12.17
2018-04-08T18:47:29.336Z,12.70
2018-04-08T18:49:56.807Z,12.23
2018-04-08T18:52:25.030Z,13.80
2018-04-08T18:54:53.260Z,13.67
2018-04-08T18:57:20.723Z,12.90
2018-04-08T18:59:48.171Z,12.47
2018-04-08T19:02:15.644Z,13.30
2018-04-08T19:04:43.108Z,12.70
2018-04-08T19:07:11.335Z,11.60
2018-04-08T19:09:39.566Z,13.77
2018-04-08T19:12:07.045Z,12.13
2018-04-08T19:14:40.182Z,11.57
2018-04-08T19:17:08.414Z,12.43
2018-04-08T19:19:35.902Z,12.73
2018-04-08T19:22:03.383Z,12.27
2018-04-08T19:24:31.602Z,12.63
2018-04-08T19:26:59.075Z,13.53
2018-04-08T19:29:26.555Z,12.23
2018-04-08T19:31:59.168Z,12.60
2018-04-08T19:34:27.606Z,12.83
2018-04-08T19:36:55.098Z,13.97
2018-04-08T19:39:28.003Z,14.17
2018-04-08T19:41:56.502Z,12.97
2018-04-08T19:44:24.732Z,12.30
2018-04-08T19:46:52.974Z,12.70
2018-04-08T19:49:21.298Z,14.20
2018-04-08T19:51:48.762Z,13.83
2018-04-08T19:54:16.388Z,12.83
2018-04-08T19:56:43.880Z,12.97
2018-04-08T19:59:13.285Z,12.77
2018-04-08T20:01:40.745Z,13.07
2018-04-08T20:04:08.984Z,13.47
2018-04-08T20:06:38.031Z,12.70
2018-04-08T20:09:05.580Z,12.87
2018-04-08T20:11:33.686Z,12.33
2018-04-08T20:14:02.042Z,12.20
2018-04-08T20:16:30.503Z,12.93
2018-04-08T20:18:58.096Z,13.27
2018-04-08T20:21:25.758Z,13.73
2018-04-08T20:23:54.794Z,13.57
2018-04-08T20:26:23.127Z,14.07
2018-04-08T20:28:51.062Z,14.90
2018-04-08T20:31:18.613Z,12.67
2018-04-08T20:33:46.325Z,13.60
2018-04-08T20:36:13.929Z,13.93
2018-04-08T20:38:41.475Z,13.73
2018-04-08T20:41:09.170Z,13.93
2018-04-08T20:43:37.451Z,13.07
2018-04-08T20:46:05.042Z,14.60
2018-04-08T20:48:32.549Z,13.93
2018-04-08T20:51:00.007Z,14.43
2018-04-08T20:53:27.475Z,13.73
2018-04-08T20:55:54.944Z,14.47
2018-04-08T20:58:22.398Z,13.83
2018-04-08T21:00:49.853Z,14.23
2018-04-08T21:03:17.294Z,15.00
2018-04-08T21:05:45.519Z,13.80
2018-04-08T21:08:12.993Z,12.77
2018-04-08T21:10:40.443Z,13.47
2018-04-08T21:13:07.893Z,13.77
2018-04-08T21:15:35.391Z,13.77
2018-04-08T21:18:02.849Z,13.37
2018-04-08T21:20:30.392Z,13.57
2018-04-08T21:22:57.832Z,13.53
2018-04-08T21:25:25.267Z,13.10
2018-04-08T21:27:53.525Z,13.00
2018-04-08T21:30:21.773Z,13.77
2018-04-08T21:32:49.229Z,13.73
2018-04-08T21:35:16.680Z,13.90
2018-04-08T21:37:44.130Z,13.40
2018-04-08T21:40:12.347Z,13.83
2018-04-08T21:42:39.809Z,13.50
2018-04-08T21:45:07.257Z,12.90
2018-04-08T21:47:34.711Z,13.07
2018-04-08T21:50:02.157Z,13.87
2018-04-08T21:52:30.380Z,15.43
2018-04-08T21:54:57.840Z,14.53
2018-04-08T21:57:25.304Z,14.87
2018-04-08T21:59:52.760Z,13.53
2018-04-08T22:02:20.210Z,15.07
2018-04-08T22:04:47.672Z,14.40
2018-04-08T22:07:15.144Z,15.67
2018-04-08T22:09:42.597Z,15.73
2018-04-08T22:12:10.055Z,15.90
2018-04-08T22:14:37.506Z,16.13
2018-04-08T22:17:04.988Z,15.40
2018-04-08T22:19:32.453Z,14.53
2018-04-08T22:21:59.902Z,15.17
2018-04-08T22:24:27.383Z,15.33
2018-04-08T22:26:54.831Z,15.87
2018-04-08T22:29:22.278Z,14.73
2018-04-08T22:31:50.506Z,14.43
2018-04-08T22:34:17.983Z,16.17
2018-04-08T22:36:45.435Z,15.10
2018-04-08T22:39:12.907Z,16.00
2018-04-08T22:41:40.371Z,17.37
2018-04-08T22:44:07.797Z,17.07
2018-04-08T22:46:35.249Z,16.53
2018-04-08T22:49:02.743Z,16.00
2018-04-08T22:51:30.200Z,16.70
2018-04-08T22:53:57.662Z,16.10
2018-04-08T22:56:25.115Z,16.97
2018-04-08T22:58:52.571Z,15.83
2018-04-08T23:01:20.045Z,16.17
2018-04-08T23:03:47.502Z,15.00
2018-04-08T23:06:14.971Z,17.43
2018-04-08T23:08:42.426Z,16.63
2018-04-08T23:11:09.866Z,16.23
2018-04-08T23:13:37.312Z,17.73
2018-04-08T23:16:05.567Z,17.23
2018-04-08T23:18:33.031Z,16.77
2018-04-08T23:21:00.492Z,16.23
2018-04-08T23:23:27.959Z,16.83
2018-04-08T23:25:55.401Z,17.23
2018-04-08T23:28:22.871Z,17.70
2018-04-08T23:30:50.328Z,18.70
2018-04-08T23:33:18.539Z,16.67
2018-04-08T23:35:45.993Z,17.20
2018-04-08T23:38:13.431Z,18.43
2018-04-08T23:40:40.883Z,17.27
2018-04-08T23:43:08.348Z,17.53
2018-04-08T23:45:35.794Z,17.80
2018-04-08T23:48:03.309Z,17.10
2018-04-08T23:50:30.784Z,18.00
2018-04-08T23:52:58.233Z,18.93
2018-04-08T23:55:25.695Z,17.23
2018-04-08T23:57:53.166Z,19.10
